Portada
METAR-TAF:

METAR-TAF

Aeropuertos :

Santa Cruz de la Sierra, Bolivia

Aeropuerto El Trompillo

latitud: 17-48S, longitud: 063-11W, altitud: 418 m

Observación

El informe se hizo hace 4 horas y 41 minutos, a las 23:00 UTC
Viento 3 kt del sur-sureste
Temperatura 27°C
Humedad 74%
Presión 1008 hPa
Visibilidad 10 km o más
Cielo nuboso a una altura de 8000 ft
Cielo cubierto a una altura de 20000 ft

METAR: SLET 102300Z 15003KT 9999 BKN080 OVC200 27/22 Q1008

Hora: 23:41 (03:41 UTC)

Pronóstico

El informe se hizo hace 4 horas y 41 minutos, a las 23:00 UTC
Pronóstico válido del 11 a las 00 UTC al 11 a las 24 UTC
Viento 15 kt del sur
Visibilidad 10 km o más
Nubes dispersas a una altura de 2300 ft
Evolucionando progresivamente
del 11 a las 15 UTC al 11 a las 18 UTC
Nubes dispersas a una altura de 2000 ft
Escasas nubes a una altura de 2700 ft, Cumulus congestus.

TAF: SLET 102300Z 1100/1124 18015KT 9999 SCT023 TX33/1119Z TN22/1110Z BECMG 1115/1118 SCT020 FEW027TCU

Observaciones y pronósticos meteorológicos de más de 4000 aeropuertos (mensajes METAR y TAF).

Los puntos amarillos y rojos representan las estaciones disponibles.

Ponga el ratón en el punto deseado para ver el nombre de la estación.

Haga clic para ver las observaciones y los pronósticos meteorológicos.

Para cambiar el mapa : haga clic en los botones verdes con una cruz de color negro para hacer un zoom, en el botón verde con un guión para alejar o en las flechas verdes para mapas adyacentes.


METAR-TAF: